KHFF/HFF METAR and TAF weather

Enter ICAO airport designator
Station Type Date Time Source
KHFF METAR 2022/05/24 12:31 UTC NOAA

KHFF 241231Z AUTO 24010KT 10SM SCT013 22/21 A3005 RMK AO2 SLP176


Station Type Date Time Source
KHFF Decoded METAR 2022/05/24 12:31 UTC NOAA

Mackall U. S. Army Airfield, NC, United States (KHFF) 35-02N 079-30W
May 24, 2022 - 08:31 AM EDT / 2022.05.24 1231 UTC
Wind: from the WSW (240 degrees) at 12 MPH (10 KT):0
Visibility: 10 mile(s):0
Sky conditions: partly cloudy
Temperature: 71 F (22 C)
Dew Point: 69 F (21 C)
Relative Humidity: 94%
Pressure (altimeter): 30.05 in. Hg (1017 hPa)
ob: KHFF 241231Z AUTO 24010KT 10SM SCT013 22/21 A3005 RMK AO2 SLP176
cycle: 12

Station Type Date Time Source
KHFF TAF UTC NOAA

Error!

Example: see airport list